sensor_id;sensor_type;location;lat;lon;timestamp;pressure;altitude;pressure_sealevel;temperature;humidity
59063;BME280;44851;45.648;9.004;2024-03-02T00:01:03;98095.06;;;8.75;82.29
59063;BME280;44851;45.648;9.004;2024-03-02T00:03:28;98086.00;;;8.79;81.76
59063;BME280;44851;45.648;9.004;2024-03-02T00:05:54;98085.53;;;8.84;81.55
59063;BME280;44851;45.648;9.004;2024-03-02T00:08:23;98095.00;;;8.85;81.27
59063;BME280;44851;45.648;9.004;2024-03-02T00:10:50;98087.13;;;8.76;81.50
59063;BME280;44851;45.648;9.004;2024-03-02T00:13:16;98093.66;;;8.81;82.05
59063;BME280;44851;45.648;9.004;2024-03-02T00:15:53;98098.25;;;8.87;81.89
59063;BME280;44851;45.648;9.004;2024-03-02T00:18:23;98090.09;;;8.82;81.64
59063;BME280;44851;45.648;9.004;2024-03-02T00:20:52;98093.88;;;8.87;82.31
59063;BME280;44851;45.648;9.004;2024-03-02T00:23:18;98099.13;;;8.77;82.59
59063;BME280;44851;45.648;9.004;2024-03-02T00:25:47;98098.47;;;8.75;82.62
59063;BME280;44851;45.648;9.004;2024-03-02T00:31:03;98097.91;;;8.64;81.76
59063;BME280;44851;45.648;9.004;2024-03-02T00:33:34;98101.69;;;8.69;82.71
59063;BME280;44851;45.648;9.004;2024-03-02T00:36:00;98099.09;;;8.69;82.45
59063;BME280;44851;45.648;9.004;2024-03-02T00:38:27;98104.88;;;8.63;82.44
59063;BME280;44851;45.648;9.004;2024-03-02T00:40:53;98103.59;;;8.67;82.33
59063;BME280;44851;45.648;9.004;2024-03-02T00:45:45;98092.59;;;8.73;82.62
59063;BME280;44851;45.648;9.004;2024-03-02T00:48:10;98100.28;;;8.75;82.32
59063;BME280;44851;45.648;9.004;2024-03-02T00:50:35;98097.50;;;8.76;82.39
59063;BME280;44851;45.648;9.004;2024-03-02T00:53:01;98104.66;;;8.74;82.34
59063;BME280;44851;45.648;9.004;2024-03-02T00:55:27;98100.88;;;8.69;82.70
59063;BME280;44851;45.648;9.004;2024-03-02T00:57:52;98099.53;;;8.65;81.89
59063;BME280;44851;45.648;9.004;2024-03-02T01:00:18;98094.84;;;8.68;82.59
59063;BME280;44851;45.648;9.004;2024-03-02T01:02:43;98099.31;;;8.58;82.88
59063;BME280;44851;45.648;9.004;2024-03-02T01:05:10;98094.78;;;8.60;82.30
59063;BME280;44851;45.648;9.004;2024-03-02T01:07:38;98099.38;;;8.66;82.57
59063;BME280;44851;45.648;9.004;2024-03-02T01:10:03;98095.81;;;8.67;81.91
59063;BME280;44851;45.648;9.004;2024-03-02T01:12:29;98103.31;;;8.70;82.15
59063;BME280;44851;45.648;9.004;2024-03-02T01:14:54;98104.63;;;8.57;81.11
59063;BME280;44851;45.648;9.004;2024-03-02T01:17:19;98103.66;;;8.58;82.32
59063;BME280;44851;45.648;9.004;2024-03-02T01:19:45;98104.72;;;8.65;81.98
59063;BME280;44851;45.648;9.004;2024-03-02T01:22:10;98104.28;;;8.69;82.02
59063;BME280;44851;45.648;9.004;2024-03-02T01:24:36;98098.72;;;8.64;82.07
59063;BME280;44851;45.648;9.004;2024-03-02T01:27:01;98098.19;;;8.61;81.84
59063;BME280;44851;45.648;9.004;2024-03-02T01:29:26;98100.94;;;8.59;81.76
59063;BME280;44851;45.648;9.004;2024-03-02T01:31:51;98099.31;;;8.58;82.43
59063;BME280;44851;45.648;9.004;2024-03-02T01:34:18;98094.34;;;8.65;82.40
59063;BME280;44851;45.648;9.004;2024-03-02T01:36:44;98088.31;;;8.64;82.65
59063;BME280;44851;45.648;9.004;2024-03-02T01:39:09;98093.53;;;8.64;82.43
59063;BME280;44851;45.648;9.004;2024-03-02T01:41:34;98094.53;;;8.71;82.03
59063;BME280;44851;45.648;9.004;2024-03-02T01:44:00;98092.91;;;8.70;81.17
59063;BME280;44851;45.648;9.004;2024-03-02T01:46:25;98091.28;;;8.69;81.72
59063;BME280;44851;45.648;9.004;2024-03-02T01:48:51;98090.25;;;8.62;81.28
59063;BME280;44851;45.648;9.004;2024-03-02T01:51:16;98089.06;;;8.57;81.74
59063;BME280;44851;45.648;9.004;2024-03-02T01:53:41;98080.97;;;8.60;81.58
59063;BME280;44851;45.648;9.004;2024-03-02T01:56:06;98088.19;;;8.48;81.15
59063;BME280;44851;45.648;9.004;2024-03-02T01:58:32;98090.84;;;8.56;82.00
59063;BME280;44851;45.648;9.004;2024-03-02T02:00:57;98090.84;;;8.56;81.46
59063;BME280;44851;45.648;9.004;2024-03-02T02:03:22;98097.97;;;8.54;81.24
59063;BME280;44851;45.648;9.004;2024-03-02T02:05:48;98091.53;;;8.58;81.62
59063;BME280;44851;45.648;9.004;2024-03-02T02:08:13;98093.06;;;8.51;81.47
59063;BME280;44851;45.648;9.004;2024-03-02T02:10:39;98086.03;;;8.43;82.32
59063;BME280;44851;45.648;9.004;2024-03-02T02:13:04;98090.84;;;8.56;82.50
59063;BME280;44851;45.648;9.004;2024-03-02T02:15:30;98085.97;;;8.53;82.41
59063;BME280;44851;45.648;9.004;2024-03-02T02:17:57;98087.38;;;8.47;82.49
59063;BME280;44851;45.648;9.004;2024-03-02T02:20:23;98078.00;;;8.55;82.06
59063;BME280;44851;45.648;9.004;2024-03-02T02:23:00;98090.19;;;8.54;81.70
59063;BME280;44851;45.648;9.004;2024-03-02T02:25:26;98083.38;;;8.53;82.58
59063;BME280;44851;45.648;9.004;2024-03-02T02:27:52;98080.16;;;8.59;82.28
59063;BME280;44851;45.648;9.004;2024-03-02T02:30:29;98072.50;;;8.58;81.89
59063;BME280;44851;45.648;9.004;2024-03-02T02:32:55;98071.13;;;8.63;82.54
59063;BME280;44851;45.648;9.004;2024-03-02T02:35:21;98070.06;;;8.56;82.16
59063;BME280;44851;45.648;9.004;2024-03-02T02:37:47;98067.19;;;8.59;81.99
59063;BME280;44851;45.648;9.004;2024-03-02T02:40:13;98067.09;;;8.51;83.29
59063;BME280;44851;45.648;9.004;2024-03-02T02:42:39;98060.47;;;8.57;82.93
59063;BME280;44851;45.648;9.004;2024-03-02T02:45:06;98065.84;;;8.55;82.48
59063;BME280;44851;45.648;9.004;2024-03-02T02:47:31;98055.91;;;8.50;81.87
59063;BME280;44851;45.648;9.004;2024-03-02T02:50:00;98059.03;;;8.54;82.69
59063;BME280;44851;45.648;9.004;2024-03-02T02:52:30;98055.91;;;8.50;81.99
59063;BME280;44851;45.648;9.004;2024-03-02T02:54:58;98058.34;;;8.52;83.17
59063;BME280;44851;45.648;9.004;2024-03-02T02:57:23;98056.09;;;8.57;81.98
59063;BME280;44851;45.648;9.004;2024-03-02T02:59:48;98063.53;;;8.52;82.32
59063;BME280;44851;45.648;9.004;2024-03-02T03:02:14;98057.41;;;8.53;82.71
59063;BME280;44851;45.648;9.004;2024-03-02T03:04:40;98061.31;;;8.57;82.85
59063;BME280;44851;45.648;9.004;2024-03-02T03:07:05;98059.50;;;8.58;81.98
59063;BME280;44851;45.648;9.004;2024-03-02T03:09:31;98061.66;;;8.62;82.36
59063;BME280;44851;45.648;9.004;2024-03-02T03:11:56;98062.97;;;8.58;81.83
59063;BME280;44851;45.648;9.004;2024-03-02T03:14:22;98066.88;;;8.62;82.27
59063;BME280;44851;45.648;9.004;2024-03-02T03:16:48;98067.84;;;8.61;82.20
59063;BME280;44851;45.648;9.004;2024-03-02T03:19:14;98063.03;;;8.48;82.57
59063;BME280;44851;45.648;9.004;2024-03-02T03:21:39;98073.84;;;8.62;83.48
59063;BME280;44851;45.648;9.004;2024-03-02T03:24:04;98072.44;;;8.67;82.81
59063;BME280;44851;45.648;9.004;2024-03-02T03:26:30;98068.19;;;8.66;83.03
59063;BME280;44851;45.648;9.004;2024-03-02T03:28:55;98072.44;;;8.67;83.04
59063;BME280;44851;45.648;9.004;2024-03-02T03:31:20;98073.75;;;8.71;83.31
59063;BME280;44851;45.648;9.004;2024-03-02T03:33:46;98069.53;;;8.70;82.92
59063;BME280;44851;45.648;9.004;2024-03-02T03:36:11;98072.13;;;8.70;82.90
59063;BME280;44851;45.648;9.004;2024-03-02T03:38:36;98067.75;;;8.71;82.71
59063;BME280;44851;45.648;9.004;2024-03-02T03:41:02;98072.28;;;8.69;82.56
59063;BME280;44851;45.648;9.004;2024-03-02T03:43:27;98075.38;;;8.72;82.98
59063;BME280;44851;45.648;9.004;2024-03-02T03:45:53;98078.31;;;8.69;83.15
59063;BME280;44851;45.648;9.004;2024-03-02T03:48:18;98079.63;;;8.73;83.22
59063;BME280;44851;45.648;9.004;2024-03-02T03:50:44;98080.91;;;8.69;82.90
59063;BME280;44851;45.648;9.004;2024-03-02T03:53:09;98080.94;;;8.77;83.66
59063;BME280;44851;45.648;9.004;2024-03-02T03:55:34;98080.91;;;8.69;82.88
59063;BME280;44851;45.648;9.004;2024-03-02T03:58:00;98089.34;;;8.71;83.16
59063;BME280;44851;45.648;9.004;2024-03-02T04:00:25;98081.41;;;8.73;83.49
59063;BME280;44851;45.648;9.004;2024-03-02T04:02:51;98086.91;;;8.70;83.21
59063;BME280;44851;45.648;9.004;2024-03-02T04:05:16;98093.44;;;8.74;83.21
59063;BME280;44851;45.648;9.004;2024-03-02T04:07:41;98089.06;;;8.74;82.67
59063;BME280;44851;45.648;9.004;2024-03-02T04:10:09;98091.19;;;8.79;82.58
59063;BME280;44851;45.648;9.004;2024-03-02T04:12:36;98094.63;;;8.80;83.23
59063;BME280;44851;45.648;9.004;2024-03-02T04:15:05;98091.66;;;8.74;82.87
59063;BME280;44851;45.648;9.004;2024-03-02T04:17:32;98098.53;;;8.84;83.24
59063;BME280;44851;45.648;9.004;2024-03-02T04:19:58;98100.94;;;8.77;82.98
59063;BME280;44851;45.648;9.004;2024-03-02T04:22:24;98092.91;;;8.70;82.75
59063;BME280;44851;45.648;9.004;2024-03-02T04:24:49;98096.84;;;8.74;83.26
59063;BME280;44851;45.648;9.004;2024-03-02T04:27:15;98102.19;;;8.73;83.34
59063;BME280;44851;45.648;9.004;2024-03-02T04:29:40;98101.81;;;8.50;83.97
59063;BME280;44851;45.648;9.004;2024-03-02T04:32:06;98097.66;;;8.57;83.31
59063;BME280;44851;45.648;9.004;2024-03-02T04:34:31;98096.56;;;8.60;83.65
59063;BME280;44851;45.648;9.004;2024-03-02T04:36:57;98103.09;;;8.64;84.12
59063;BME280;44851;45.648;9.004;2024-03-02T04:39:22;98106.34;;;8.66;83.62
59063;BME280;44851;45.648;9.004;2024-03-02T04:41:47;98101.38;;;8.72;83.91
59063;BME280;44851;45.648;9.004;2024-03-02T04:44:13;98106.88;;;8.69;83.17
59063;BME280;44851;45.648;9.004;2024-03-02T04:46:38;98109.16;;;8.72;83.19
59063;BME280;44851;45.648;9.004;2024-03-02T04:49:03;98107.69;;;8.70;82.90
59063;BME280;44851;45.648;9.004;2024-03-02T04:51:28;98107.25;;;8.74;83.52
59063;BME280;44851;45.648;9.004;2024-03-02T04:53:54;98106.19;;;8.67;83.14
59063;BME280;44851;45.648;9.004;2024-03-02T04:56:19;98113.38;;;8.73;83.74
59063;BME280;44851;45.648;9.004;2024-03-02T04:59:04;98120.53;;;8.71;83.11
59063;BME280;44851;45.648;9.004;2024-03-02T05:01:29;98123.78;;;8.73;83.12
59063;BME280;44851;45.648;9.004;2024-03-02T05:03:55;98122.97;;;8.73;83.31
59063;BME280;44851;45.648;9.004;2024-03-02T05:06:20;98125.72;;;8.71;83.21
59063;BME280;44851;45.648;9.004;2024-03-02T05:08:45;98122.59;;;8.68;83.34
59063;BME280;44851;45.648;9.004;2024-03-02T05:11:10;98127.34;;;8.72;83.55
59063;BME280;44851;45.648;9.004;2024-03-02T05:14:07;98128.31;;;8.71;83.54
59063;BME280;44851;45.648;9.004;2024-03-02T05:16:36;98134.31;;;8.72;83.27
59063;BME280;44851;45.648;9.004;2024-03-02T05:19:03;98141.97;;;8.73;83.56
59063;BME280;44851;45.648;9.004;2024-03-02T05:21:29;98139.38;;;8.73;83.28
59063;BME280;44851;45.648;9.004;2024-03-02T05:23:54;98144.72;;;8.72;82.90
59063;BME280;44851;45.648;9.004;2024-03-02T05:26:19;98137.75;;;8.72;83.60
59063;BME280;44851;45.648;9.004;2024-03-02T05:28:45;98147.47;;;8.70;83.44
59063;BME280;44851;45.648;9.004;2024-03-02T05:31:10;98153.31;;;8.72;83.78
59063;BME280;44851;45.648;9.004;2024-03-02T05:33:40;98150.88;;;8.71;82.80
59063;BME280;44851;45.648;9.004;2024-03-02T05:36:05;98159.50;;;8.71;83.45
59063;BME280;44851;45.648;9.004;2024-03-02T05:38:31;98155.94;;;8.72;83.17
59063;BME280;44851;45.648;9.004;2024-03-02T05:40:57;98163.72;;;8.72;83.35
59063;BME280;44851;45.648;9.004;2024-03-02T05:43:22;98160.16;;;8.73;83.86
59063;BME280;44851;45.648;9.004;2024-03-02T05:45:47;98162.09;;;8.71;83.39
59063;BME280;44851;45.648;9.004;2024-03-02T05:48:12;98153.69;;;8.77;82.98
59063;BME280;44851;45.648;9.004;2024-03-02T05:50:38;98155.66;;;8.75;83.12
59063;BME280;44851;45.648;9.004;2024-03-02T05:53:03;98149.75;;;8.73;82.56
59063;BME280;44851;45.648;9.004;2024-03-02T05:55:29;98156.31;;;8.77;83.50
59063;BME280;44851;45.648;9.004;2024-03-02T05:57:54;98154.28;;;8.71;83.75
59063;BME280;44851;45.648;9.004;2024-03-02T06:00:32;98159.13;;;8.66;83.81
59063;BME280;44851;45.648;9.004;2024-03-02T06:02:58;98166.63;;;8.69;83.92
59063;BME280;44851;45.648;9.004;2024-03-02T06:05:23;98161.28;;;8.71;84.17
59063;BME280;44851;45.648;9.004;2024-03-02T06:07:50;98168.25;;;8.70;83.79
59063;BME280;44851;45.648;9.004;2024-03-02T06:10:15;98171.13;;;8.67;83.84
59063;BME280;44851;45.648;9.004;2024-03-02T06:12:41;98176.34;;;8.67;83.91
59063;BME280;44851;45.648;9.004;2024-03-02T06:15:07;98176.06;;;8.70;84.14
59063;BME280;44851;45.648;9.004;2024-03-02T06:17:35;98173.50;;;8.78;83.65
59063;BME280;44851;45.648;9.004;2024-03-02T06:20:00;98180.66;;;8.76;83.59
59063;BME280;44851;45.648;9.004;2024-03-02T06:22:25;98181.47;;;8.77;83.61
59063;BME280;44851;45.648;9.004;2024-03-02T06:24:51;98182.00;;;8.81;83.71
59063;BME280;44851;45.648;9.004;2024-03-02T06:27:16;98173.50;;;8.78;83.97
59063;BME280;44851;45.648;9.004;2024-03-02T06:29:41;98187.19;;;8.81;83.65
59063;BME280;44851;45.648;9.004;2024-03-02T06:32:07;98181.69;;;8.84;84.22
59063;BME280;44851;45.648;9.004;2024-03-02T06:34:32;98185.25;;;8.83;84.13
59063;BME280;44851;45.648;9.004;2024-03-02T06:36:57;98186.59;;;8.87;84.80
59063;BME280;44851;45.648;9.004;2024-03-02T06:39:23;98193.75;;;8.85;84.33
59063;BME280;44851;45.648;9.004;2024-03-02T06:41:48;98190.00;;;8.87;84.46
59063;BME280;44851;45.648;9.004;2024-03-02T06:44:13;98197.00;;;8.87;84.41
59063;BME280;44851;45.648;9.004;2024-03-02T06:46:39;98197.66;;;8.89;84.28
59063;BME280;44851;45.648;9.004;2024-03-02T06:49:04;98197.81;;;8.87;84.67
59063;BME280;44851;45.648;9.004;2024-03-02T06:51:29;98203.53;;;8.91;84.54
59063;BME280;44851;45.648;9.004;2024-03-02T06:53:55;98207.06;;;8.90;84.13
59063;BME280;44851;45.648;9.004;2024-03-02T06:56:21;98209.97;;;8.87;84.49
59063;BME280;44851;45.648;9.004;2024-03-02T06:58:46;98212.81;;;8.93;84.96
59063;BME280;44851;45.648;9.004;2024-03-02T07:01:12;98213.25;;;8.89;84.11
59063;BME280;44851;45.648;9.004;2024-03-02T07:03:38;98221.28;;;8.95;84.66
59063;BME280;44851;45.648;9.004;2024-03-02T07:06:05;98214.97;;;8.98;85.17
59063;BME280;44851;45.648;9.004;2024-03-02T07:08:30;98219.78;;;8.93;84.48
59063;BME280;44851;45.648;9.004;2024-03-02T07:10:55;98220.38;;;8.87;85.69
59063;BME280;44851;45.648;9.004;2024-03-02T07:13:22;98221.84;;;8.71;85.62
59063;BME280;44851;45.648;9.004;2024-03-02T07:15:47;98221.69;;;8.73;86.78
59063;BME280;44851;45.648;9.004;2024-03-02T07:18:44;98222.97;;;8.87;86.44
59063;BME280;44851;45.648;9.004;2024-03-02T07:21:16;98231.53;;;8.97;85.91
59063;BME280;44851;45.648;9.004;2024-03-02T07:23:41;98224.69;;;8.96;86.30
59063;BME280;44851;45.648;9.004;2024-03-02T07:26:06;98222.09;;;8.96;85.77
59063;BME280;44851;45.648;9.004;2024-03-02T07:28:32;98233.53;;;9.03;86.09
59063;BME280;44851;45.648;9.004;2024-03-02T07:31:02;98230.78;;;9.04;85.66
59063;BME280;44851;45.648;9.004;2024-03-02T07:33:28;98234.13;;;8.97;86.26
59063;BME280;44851;45.648;9.004;2024-03-02T07:35:54;98237.75;;;9.04;86.09
59063;BME280;44851;45.648;9.004;2024-03-02T07:38:20;98233.91;;;9.08;86.37
59063;BME280;44851;45.648;9.004;2024-03-02T07:40:46;98238.44;;;9.06;85.42
59063;BME280;44851;45.648;9.004;2024-03-02T07:43:12;98236.50;;;9.08;86.07
59063;BME280;44851;45.648;9.004;2024-03-02T07:45:38;98247.03;;;8.89;87.02
59063;BME280;44851;45.648;9.004;2024-03-02T07:48:03;98248.38;;;8.93;86.94
59063;BME280;44851;45.648;9.004;2024-03-02T07:50:29;98239.91;;;8.91;86.96
59063;BME280;44851;45.648;9.004;2024-03-02T07:52:55;98243.75;;;8.87;87.16
59063;BME280;44851;45.648;9.004;2024-03-02T07:55:21;98245.72;;;8.85;87.69
59063;BME280;44851;45.648;9.004;2024-03-02T07:57:46;98244.41;;;8.89;87.20
59063;BME280;44851;45.648;9.004;2024-03-02T08:00:12;98247.63;;;8.83;88.08
59063;BME280;44851;45.648;9.004;2024-03-02T08:02:37;98245.63;;;8.94;87.71
59063;BME280;44851;45.648;9.004;2024-03-02T08:05:03;98251.25;;;8.90;88.02
59063;BME280;44851;45.648;9.004;2024-03-02T08:07:29;98256.66;;;8.78;88.54
59063;BME280;44851;45.648;9.004;2024-03-02T08:09:54;98259.16;;;8.98;87.82
59063;BME280;44851;45.648;9.004;2024-03-02T08:12:20;98266.84;;;8.90;87.80
59063;BME280;44851;45.648;9.004;2024-03-02T08:14:46;98266.94;;;8.98;87.60
59063;BME280;44851;45.648;9.004;2024-03-02T08:17:12;98270.72;;;9.03;87.09
59063;BME280;44851;45.648;9.004;2024-03-02T08:19:37;98274.53;;;9.09;87.26
59063;BME280;44851;45.648;9.004;2024-03-02T08:22:03;98276.47;;;9.07;87.40
59063;BME280;44851;45.648;9.004;2024-03-02T08:24:28;98277.94;;;9.10;86.96
59063;BME280;44851;45.648;9.004;2024-03-02T08:26:54;98285.59;;;9.11;87.00
59063;BME280;44851;45.648;9.004;2024-03-02T08:29:19;98283.72;;;8.86;87.84
59063;BME280;44851;45.648;9.004;2024-03-02T08:31:45;98295.56;;;8.70;88.21
59063;BME280;44851;45.648;9.004;2024-03-02T08:34:10;98290.38;;;8.88;88.03
59063;BME280;44851;45.648;9.004;2024-03-02T08:36:36;98299.47;;;9.02;88.10
59063;BME280;44851;45.648;9.004;2024-03-02T08:39:01;98295.38;;;8.99;87.81
59063;BME280;44851;45.648;9.004;2024-03-02T08:41:28;98293.75;;;8.98;87.34
59063;BME280;44851;45.648;9.004;2024-03-02T08:43:53;98302.47;;;9.07;86.89
59063;BME280;44851;45.648;9.004;2024-03-02T08:46:19;98291.88;;;8.91;87.89
59063;BME280;44851;45.648;9.004;2024-03-02T08:48:45;98299.75;;;8.99;87.63
59063;BME280;44851;45.648;9.004;2024-03-02T08:51:10;98299.97;;;9.05;87.74
59063;BME280;44851;45.648;9.004;2024-03-02T08:53:36;98304.09;;;9.08;87.03
59063;BME280;44851;45.648;9.004;2024-03-02T08:56:02;98297.63;;;9.12;86.93
59063;BME280;44851;45.648;9.004;2024-03-02T08:58:27;98306.47;;;9.19;86.54
59063;BME280;44851;45.648;9.004;2024-03-02T09:00:52;98298.06;;;9.08;87.37
59063;BME280;44851;45.648;9.004;2024-03-02T09:03:18;98296.19;;;9.00;87.33
59063;BME280;44851;45.648;9.004;2024-03-02T09:05:43;98290.75;;;8.93;88.13
59063;BME280;44851;45.648;9.004;2024-03-02T09:08:10;98291.25;;;9.07;87.15
59063;BME280;44851;45.648;9.004;2024-03-02T09:10:35;98286.09;;;8.97;87.50
59063;BME280;44851;45.648;9.004;2024-03-02T09:13:01;98295.31;;;8.91;88.00
59063;BME280;44851;45.648;9.004;2024-03-02T09:15:26;98289.50;;;8.97;88.29
59063;BME280;44851;45.648;9.004;2024-03-02T09:17:52;98291.00;;;9.00;88.27
59063;BME280;44851;45.648;9.004;2024-03-02T09:20:17;98291.13;;;8.81;87.77
59063;BME280;44851;45.648;9.004;2024-03-02T09:22:43;98286.03;;;9.07;88.52
59063;BME280;44851;45.648;9.004;2024-03-02T09:25:08;98294.78;;;9.05;87.80
59063;BME280;44851;45.648;9.004;2024-03-02T09:27:36;98283.34;;;8.98;89.25
59063;BME280;44851;45.648;9.004;2024-03-02T09:30:04;98288.50;;;9.08;88.76
59063;BME280;44851;45.648;9.004;2024-03-02T09:32:30;98286.56;;;9.10;88.68
59063;BME280;44851;45.648;9.004;2024-03-02T09:34:56;98293.03;;;9.24;88.66
59063;BME280;44851;45.648;9.004;2024-03-02T09:37:21;98301.22;;;9.11;88.55
59063;BME280;44851;45.648;9.004;2024-03-02T09:39:47;98290.72;;;9.03;88.10
59063;BME280;44851;45.648;9.004;2024-03-02T09:42:12;98301.72;;;9.15;88.04
59063;BME280;44851;45.648;9.004;2024-03-02T09:44:38;98297.16;;;8.99;89.00
59063;BME280;44851;45.648;9.004;2024-03-02T09:47:04;98304.25;;;9.24;87.38
59063;BME280;44851;45.648;9.004;2024-03-02T09:49:29;98297.75;;;9.11;88.15
59063;BME280;44851;45.648;9.004;2024-03-02T09:51:55;98301.66;;;9.24;88.37
59063;BME280;44851;45.648;9.004;2024-03-02T09:54:21;98294.03;;;9.41;87.48
59063;BME280;44851;45.648;9.004;2024-03-02T09:56:47;98303.41;;;9.34;87.30
59063;BME280;44851;45.648;9.004;2024-03-02T09:59:12;98310.31;;;9.15;88.08
59063;BME280;44851;45.648;9.004;2024-03-02T10:01:55;98310.25;;;9.07;88.09
59063;BME280;44851;45.648;9.004;2024-03-02T10:04:21;98305.50;;;9.20;88.86
59063;BME280;44851;45.648;9.004;2024-03-02T10:06:46;98298.44;;;9.30;87.83
59063;BME280;44851;45.648;9.004;2024-03-02T10:09:26;98307.91;;;9.32;86.85
59063;BME280;44851;45.648;9.004;2024-03-02T10:11:52;98308.16;;;9.38;86.36
59063;BME280;44851;45.648;9.004;2024-03-02T10:14:17;98308.97;;;9.39;86.54
59063;BME280;44851;45.648;9.004;2024-03-02T10:16:44;98310.09;;;9.54;86.29
59063;BME280;44851;45.648;9.004;2024-03-02T10:19:23;98316.97;;;9.63;85.70
59063;BME280;44851;45.648;9.004;2024-03-02T10:21:49;98318.84;;;9.53;86.90
59063;BME280;44851;45.648;9.004;2024-03-02T10:24:16;98311.47;;;9.48;86.09
59063;BME280;44851;45.648;9.004;2024-03-02T10:26:41;98313.25;;;9.48;86.47
59063;BME280;44851;45.648;9.004;2024-03-02T10:29:10;98311.41;;;9.58;86.42
59063;BME280;44851;45.648;9.004;2024-03-02T10:31:40;98321.44;;;9.53;85.98
59063;BME280;44851;45.648;9.004;2024-03-02T10:34:07;98317.28;;;9.60;85.91
59063;BME280;44851;45.648;9.004;2024-03-02T10:36:37;98311.94;;;9.62;85.99
59063;BME280;44851;45.648;9.004;2024-03-02T10:39:03;98318.53;;;9.56;85.37
59063;BME280;44851;45.648;9.004;2024-03-02T10:41:35;98328.22;;;9.46;85.79
59063;BME280;44851;45.648;9.004;2024-03-02T10:44:02;98314.22;;;9.47;85.16
59063;BME280;44851;45.648;9.004;2024-03-02T10:46:29;98327.63;;;9.52;86.29
59063;BME280;44851;45.648;9.004;2024-03-02T10:48:56;98319.88;;;9.60;85.92
59063;BME280;44851;45.648;9.004;2024-03-02T10:51:27;98326.41;;;9.64;86.31
59063;BME280;44851;45.648;9.004;2024-03-02T10:53:54;98322.88;;;9.65;85.44
59063;BME280;44851;45.648;9.004;2024-03-02T10:56:28;98325.03;;;9.70;85.78
59063;BME280;44851;45.648;9.004;2024-03-02T10:59:12;98321.44;;;9.71;85.77
59063;BME280;44851;45.648;9.004;2024-03-02T11:01:42;98315.09;;;9.73;85.42
59063;BME280;44851;45.648;9.004;2024-03-02T11:04:09;98318.69;;;9.72;85.74
59063;BME280;44851;45.648;9.004;2024-03-02T11:06:37;98320.53;;;9.62;86.38
59063;BME280;44851;45.648;9.004;2024-03-02T11:09:07;98313.28;;;9.66;86.55
59063;BME280;44851;45.648;9.004;2024-03-02T11:11:40;98309.63;;;9.76;86.61
59063;BME280;44851;45.648;9.004;2024-03-02T11:14:11;98307.84;;;9.59;86.07
59063;BME280;44851;45.648;9.004;2024-03-02T11:16:38;98308.81;;;9.40;87.13
59063;BME280;44851;45.648;9.004;2024-03-02T11:19:10;98303.22;;;9.53;86.61
59063;BME280;44851;45.648;9.004;2024-03-02T11:21:37;98314.22;;;9.47;87.06
59063;BME280;44851;45.648;9.004;2024-03-02T11:26:46;98314.31;;;9.55;87.71
59063;BME280;44851;45.648;9.004;2024-03-02T11:32:02;98311.19;;;9.51;87.79
59063;BME280;44851;45.648;9.004;2024-03-02T11:34:31;98306.81;;;9.52;86.69
59063;BME280;44851;45.648;9.004;2024-03-02T11:37:02;98301.00;;;9.58;86.71
59063;BME280;44851;45.648;9.004;2024-03-02T11:39:29;98299.91;;;9.61;86.38
59063;BME280;44851;45.648;9.004;2024-03-02T11:41:56;98291.34;;;9.50;86.81
59063;BME280;44851;45.648;9.004;2024-03-02T11:44:22;98288.22;;;9.47;87.55
59063;BME280;44851;45.648;9.004;2024-03-02T11:47:10;98282.13;;;9.56;86.14
59063;BME280;44851;45.648;9.004;2024-03-02T11:49:38;98280.88;;;9.60;87.63
59063;BME280;44851;45.648;9.004;2024-03-02T11:52:09;98279.91;;;9.61;87.59
59063;BME280;44851;45.648;9.004;2024-03-02T11:54:38;98282.78;;;9.58;87.23
59063;BME280;44851;45.648;9.004;2024-03-02T11:57:12;98280.72;;;9.62;86.98
59063;BME280;44851;45.648;9.004;2024-03-02T11:59:37;98281.44;;;9.72;86.93
59063;BME280;44851;45.648;9.004;2024-03-02T12:02:03;98273.47;;;9.73;87.15
59063;BME280;44851;45.648;9.004;2024-03-02T12:04:28;98279.81;;;9.71;86.77
59063;BME280;44851;45.648;9.004;2024-03-02T12:06:59;98273.47;;;9.73;86.07
59063;BME280;44851;45.648;9.004;2024-03-02T12:09:26;98275.91;;;9.75;86.18
59063;BME280;44851;45.648;9.004;2024-03-02T12:12:05;98277.03;;;9.72;87.03
59063;BME280;44851;45.648;9.004;2024-03-02T12:14:31;98265.97;;;9.70;86.79
59063;BME280;44851;45.648;9.004;2024-03-02T12:16:57;98267.44;;;9.73;87.07
59063;BME280;44851;45.648;9.004;2024-03-02T12:19:24;98269.34;;;9.89;86.73
59063;BME280;44851;45.648;9.004;2024-03-02T12:21:49;98265.72;;;9.81;86.28
59063;BME280;44851;45.648;9.004;2024-03-02T12:24:15;98267.09;;;9.68;87.00
59063;BME280;44851;45.648;9.004;2024-03-02T12:26:40;98255.72;;;9.69;87.35
59063;BME280;44851;45.648;9.004;2024-03-02T12:29:07;98259.19;;;9.77;87.51
59063;BME280;44851;45.648;9.004;2024-03-02T12:31:32;98259.84;;;9.79;87.26
59063;BME280;44851;45.648;9.004;2024-03-02T12:33:58;98256.78;;;9.84;87.51
59063;BME280;44851;45.648;9.004;2024-03-02T12:36:23;98248.50;;;9.80;87.34
59063;BME280;44851;45.648;9.004;2024-03-02T12:38:52;98247.50;;;9.81;87.39
59063;BME280;44851;45.648;9.004;2024-03-02T12:41:18;98245.22;;;9.78;86.99
59063;BME280;44851;45.648;9.004;2024-03-02T12:43:43;98242.56;;;9.70;87.86
59063;BME280;44851;45.648;9.004;2024-03-02T12:46:10;98243.25;;;9.54;88.64
59063;BME280;44851;45.648;9.004;2024-03-02T12:48:36;98242.66;;;9.61;88.02
59063;BME280;44851;45.648;9.004;2024-03-02T12:51:01;98242.84;;;9.67;86.96
59063;BME280;44851;45.648;9.004;2024-03-02T12:53:27;98240.09;;;9.69;87.83
59063;BME280;44851;45.648;9.004;2024-03-02T12:55:52;98237.38;;;9.70;87.70
59063;BME280;44851;45.648;9.004;2024-03-02T12:58:19;98234.75;;;9.70;87.66
59063;BME280;44851;45.648;9.004;2024-03-02T13:00:46;98233.78;;;9.71;88.02
59063;BME280;44851;45.648;9.004;2024-03-02T13:03:11;98233.78;;;9.71;87.62
59063;BME280;44851;45.648;9.004;2024-03-02T13:05:37;98228.06;;;9.68;88.14
59063;BME280;44851;45.648;9.004;2024-03-02T13:08:02;98228.31;;;9.82;88.20
59063;BME280;44851;45.648;9.004;2024-03-02T13:10:30;98220.19;;;9.86;87.46
59063;BME280;44851;45.648;9.004;2024-03-02T13:12:56;98222.22;;;10.00;87.37
59063;BME280;44851;45.648;9.004;2024-03-02T13:15:21;98224.72;;;10.09;86.92
59063;BME280;44851;45.648;9.004;2024-03-02T13:17:47;98222.81;;;10.20;87.12